Time;durP1;ratioP1;P1;durP2;ratioP2;P2;SDS_P1;SDS_P2;PMS_P1;PMS_P2;Temp;Humidity;BMP_temperature;BMP_pressure;BME280_temperature;BME280_humidity;BME280_pressure;Samples;Min_cycle;Max_cycle;Signal;HPM_P1;HPM_P2
2024/02/19 00:01:25;;;;;;;7.65;2.75;;;7.20;63.20;;;;;;5075165;28;20421;-71
2024/02/19 00:03:52;;;;;;;1.25;0.88;;;7.20;62.90;;;;;;5074365;28;20045;-73
2024/02/19 00:06:18;;;;;;;2.00;1.15;;;7.10;62.90;;;;;;5072505;28;20059;-71
2024/02/19 00:08:44;;;;;;;0.47;0.40;;;7.20;63.20;;;;;;5072161;28;20086;-71
2024/02/19 00:11:10;;;;;;;1.50;1.27;;;7.10;63.00;;;;;;5073324;28;20033;-71
2024/02/19 00:13:55;;;;;;;2.47;1.23;;;7.00;63.10;;;;;;5072469;28;20033;-74
2024/02/19 00:16:21;;;;;;;2.30;1.38;;;7.00;63.20;;;;;;5089407;28;20035;-72
2024/02/19 00:18:47;;;;;;;2.10;1.65;;;7.00;62.80;;;;;;5090490;28;20473;-74
2024/02/19 00:21:17;;;;;;;1.27;1.13;;;7.00;62.80;;;;;;5085878;28;20047;-74
2024/02/19 00:23:43;;;;;;;3.03;2.00;;;6.90;62.50;;;;;;5055659;28;20048;-71
2024/02/19 00:26:09;;;;;;;3.15;1.80;;;6.90;63.10;;;;;;5073440;28;20029;-71
2024/02/19 00:28:35;;;;;;;1.42;0.88;;;6.90;63.30;;;;;;5073752;28;20073;-71
2024/02/19 00:31:01;;;;;;;1.40;1.08;;;6.80;63.20;;;;;;5072824;28;20044;-74
2024/02/19 00:33:27;;;;;;;4.50;2.00;;;6.80;63.40;;;;;;5079161;28;20028;-71
2024/02/19 00:35:53;;;;;;;5.53;3.30;;;6.80;63.40;;;;;;5072672;28;20386;-74
2024/02/19 00:38:19;;;;;;;1.77;1.17;;;6.70;63.70;;;;;;5073440;28;20389;-74
2024/02/19 00:40:45;;;;;;;4.55;1.67;;;6.70;63.90;;;;;;5072475;28;20040;-71
2024/02/19 00:43:12;;;;;;;1.80;0.93;;;6.60;63.90;;;;;;5055133;28;20098;-71
2024/02/19 00:45:38;;;;;;;3.85;1.92;;;6.60;64.00;;;;;;5071722;28;20039;-74
2024/02/19 00:48:05;;;;;;;4.28;1.00;;;6.50;64.00;;;;;;5073145;28;20037;-74
2024/02/19 00:50:31;;;;;;;2.75;1.52;;;6.40;63.40;;;;;;5071933;28;20053;-74
2024/02/19 00:52:57;;;;;;;1.60;1.25;;;6.40;63.90;;;;;;5071554;28;20028;-72
2024/02/19 00:55:23;;;;;;;2.10;1.55;;;6.40;63.90;;;;;;5071678;28;20028;-72
2024/02/19 00:57:49;;;;;;;5.55;1.85;;;6.30;64.10;;;;;;5070941;28;20342;-74
2024/02/19 01:00:16;;;;;;;3.97;2.63;;;6.30;64.10;;;;;;5054279;28;20036;-70
2024/02/19 01:02:42;;;;;;;2.60;1.58;;;6.30;64.10;;;;;;5071403;28;20358;-74
2024/02/19 01:05:08;;;;;;;2.97;1.95;;;6.30;64.00;;;;;;5072752;28;20082;-70
2024/02/19 01:07:35;;;;;;;2.92;1.77;;;6.30;64.10;;;;;;5072618;28;20044;-74
2024/02/19 01:10:01;;;;;;;3.47;1.90;;;6.20;64.20;;;;;;5072333;28;20024;-73
2024/02/19 01:12:28;;;;;;;10.70;3.47;;;6.10;64.10;;;;;;5050396;28;20048;-74
2024/02/19 01:14:54;;;;;;;5.53;2.13;;;6.10;64.30;;;;;;5051177;28;20029;-71
2024/02/19 01:17:20;;;;;;;6.55;1.95;;;6.10;64.30;;;;;;5051053;28;20490;-74
2024/02/19 01:19:46;;;;;;;5.18;2.03;;;6.10;64.60;;;;;;5052172;28;20036;-71
2024/02/19 01:22:12;;;;;;;2.47;1.42;;;6.10;64.40;;;;;;5068282;28;20045;-74
2024/02/19 01:24:39;;;;;;;4.53;1.65;;;6.00;64.20;;;;;;5072215;28;20131;-70
2024/02/19 01:27:06;;;;;;;;;;;6.00;64.10;;;;;;5072907;28;20040;-71
2024/02/19 01:29:34;;;;;;;1.60;0.75;;;5.90;64.40;;;;;;5070904;28;20341;-74
2024/02/19 01:32:00;;;;;;;3.50;2.05;;;5.80;64.50;;;;;;5069773;28;20049;-71
2024/02/19 01:34:26;;;;;;;;;;;5.80;64.90;;;;;;5054931;28;20067;-71
2024/02/19 01:36:52;;;;;;;2.83;2.13;;;5.80;64.60;;;;;;5054063;28;19920;-70
2024/02/19 01:39:18;;;;;;;3.08;1.25;;;5.80;64.60;;;;;;5071748;28;20037;-73
2024/02/19 01:41:44;;;;;;;2.50;0.85;;;5.70;64.80;;;;;;5071547;28;20047;-74
2024/02/19 01:44:10;;;;;;;1.23;0.77;;;5.70;64.90;;;;;;5072128;28;20032;-70
2024/02/19 01:46:41;;;;;;;2.22;1.40;;;5.70;64.90;;;;;;5054009;28;20041;-73
2024/02/19 01:49:09;;;;;;;3.13;1.38;;;5.70;64.80;;;;;;5070537;28;20055;-73
2024/02/19 01:51:35;;;;;;;3.00;1.77;;;5.70;64.70;;;;;;5070013;28;20048;-73
2024/02/19 01:54:02;;;;;;;1.95;1.52;;;5.60;64.20;;;;;;5070370;28;20032;-71
2024/02/19 01:56:28;;;;;;;2.10;1.33;;;5.70;65.00;;;;;;5053993;28;20564;-74
2024/02/19 01:58:56;;;;;;;5.43;1.33;;;5.60;64.90;;;;;;5069996;28;20426;-70
2024/02/19 02:01:23;;;;;;;1.52;1.00;;;5.60;65.20;;;;;;5053330;28;20032;-74
2024/02/19 02:03:51;;;;;;;2.97;1.52;;;5.60;65.20;;;;;;5070020;28;20455;-71
2024/02/19 02:06:17;;;;;;;0.82;0.60;;;5.50;65.30;;;;;;5070329;28;20033;-74
2024/02/19 02:08:43;;;;;;;1.77;1.00;;;5.50;65.30;;;;;;5070179;28;20028;-70
2024/02/19 02:11:10;;;;;;;2.78;1.08;;;5.50;65.30;;;;;;5069744;28;20441;-74
2024/02/19 02:13:36;;;;;;;2.85;0.82;;;5.50;66.00;;;;;;5070309;28;20464;-70
2024/02/19 02:16:03;;;;;;;2.40;1.27;;;5.40;64.80;;;;;;5070339;28;20043;-71
2024/02/19 02:18:30;;;;;;;1.90;1.13;;;5.30;64.20;;;;;;5053468;28;20127;-71
2024/02/19 02:20:57;;;;;;;2.35;1.75;;;5.30;64.80;;;;;;5069574;28;20037;-74
2024/02/19 02:23:25;;;;;;;2.17;0.95;;;5.20;64.20;;;;;;5053471;28;20033;-74
2024/02/19 02:28:38;;;;;;;3.03;1.95;;;5.10;64.90;;;;;;5070109;28;20145;-74
2024/02/19 02:31:05;;;;;;;10.18;1.52;;;5.00;65.10;;;;;;5052525;28;20039;-74
2024/02/19 02:33:31;;;;;;;3.83;1.05;;;5.00;65.30;;;;;;5052988;28;20029;-73
2024/02/19 02:35:57;;;;;;;2.72;1.13;;;4.90;64.90;;;;;;5071276;28;20104;-70
2024/02/19 02:38:23;;;;;;;1.50;0.95;;;4.80;64.80;;;;;;5070010;28;20068;-74
2024/02/19 02:40:49;;;;;;;2.28;1.15;;;4.70;65.00;;;;;;5069359;28;20037;-71
2024/02/19 02:43:15;;;;;;;2.28;1.17;;;4.80;64.90;;;;;;5073086;28;20045;-70
2024/02/19 02:45:41;;;;;;;3.13;1.27;;;4.80;65.00;;;;;;5075367;28;20118;-73
2024/02/19 02:48:08;;;;;;;3.20;1.63;;;4.70;65.50;;;;;;5074158;28;20123;-74
2024/02/19 02:50:34;;;;;;;2.92;1.20;;;4.70;65.50;;;;;;5056920;28;20055;-74
2024/02/19 02:53:00;;;;;;;7.57;2.55;;;4.80;65.50;;;;;;5075448;28;20074;-71
2024/02/19 02:55:26;;;;;;;5.57;1.95;;;4.80;65.50;;;;;;5073907;28;20037;-71
2024/02/19 02:57:52;;;;;;;2.70;1.60;;;4.70;65.70;;;;;;5075143;28;20040;-71
2024/02/19 03:00:19;;;;;;;5.88;2.05;;;4.70;65.50;;;;;;5074313;28;20086;-73
2024/02/19 03:02:45;;;;;;;3.03;1.67;;;4.70;64.70;;;;;;5074750;28;20089;-74
2024/02/19 03:05:11;;;;;;;2.97;1.55;;;4.70;65.30;;;;;;5073809;28;20366;-74
2024/02/19 03:07:37;;;;;;;6.75;4.65;;;4.70;65.20;;;;;;5056707;28;20055;-71
2024/02/19 03:10:04;;;;;;;4.38;2.55;;;4.70;65.60;;;;;;5072946;28;20056;-71
2024/02/19 03:12:30;;;;;;;4.25;2.67;;;4.70;65.00;;;;;;5073437;28;20047;-71
2024/02/19 03:14:56;;;;;;;2.50;2.03;;;4.60;65.70;;;;;;5074088;28;20448;-71
2024/02/19 03:17:23;;;;;;;7.53;3.97;;;4.60;65.70;;;;;;5073459;28;20131;-73
2024/02/19 03:19:49;;;;;;;3.30;1.77;;;4.50;66.20;;;;;;5074566;28;20400;-71
2024/02/19 03:22:15;;;;;;;6.45;2.97;;;4.60;66.30;;;;;;5055857;28;20037;-70
2024/02/19 03:24:41;;;;;;;4.10;2.35;;;4.50;66.40;;;;;;5073365;28;20035;-71
2024/02/19 03:27:07;;;;;;;1.60;1.15;;;4.50;67.30;;;;;;5074536;28;20040;-74
2024/02/19 03:29:33;;;;;;;3.60;2.05;;;4.40;66.40;;;;;;5056373;28;20028;-70
2024/02/19 03:31:59;;;;;;;4.70;2.72;;;4.40;66.60;;;;;;5072447;28;20049;-74
2024/02/19 03:34:25;;;;;;;;;;;4.30;66.30;;;;;;5075135;28;20070;-74
2024/02/19 03:36:52;;;;;;;3.40;2.03;;;4.30;66.90;;;;;;5074527;28;19924;-74
2024/02/19 03:39:18;;;;;;;3.70;2.13;;;4.20;67.10;;;;;;5074411;28;20533;-71
2024/02/19 03:41:44;;;;;;;;;;;4.20;67.10;;;;;;5072889;28;20067;-74
2024/02/19 03:44:11;;;;;;;6.00;1.45;;;4.10;67.20;;;;;;5074251;28;19920;-71
2024/02/19 03:46:37;;;;;;;;;;;4.10;67.30;;;;;;5073494;28;20086;-71
2024/02/19 03:49:03;;;;;;;2.92;1.73;;;4.10;67.30;;;;;;5072848;28;19912;-74
2024/02/19 03:51:29;;;;;;;4.57;1.75;;;4.10;67.50;;;;;;5073435;28;20079;-70
2024/02/19 03:53:55;;;;;;;3.10;2.05;;;4.10;67.60;;;;;;5073688;28;20481;-71
2024/02/19 03:56:21;;;;;;;2.22;1.40;;;4.20;67.40;;;;;;5074013;28;20029;-74
2024/02/19 03:58:47;;;;;;;5.93;2.30;;;4.20;66.90;;;;;;5073944;28;20070;-71
2024/02/19 04:01:13;;;;;;;3.88;1.90;;;4.20;67.20;;;;;;5072258;28;20488;-74
2024/02/19 04:03:39;;;;;;;;;;;4.20;67.30;;;;;;5073064;28;20052;-71
2024/02/19 04:06:05;;;;;;;6.05;3.40;;;4.20;67.40;;;;;;5056062;28;20293;-70
2024/02/19 04:08:32;;;;;;;;;;;4.20;66.50;;;;;;5074782;28;20111;-71
2024/02/19 04:10:58;;;;;;;3.38;1.75;;;4.20;67.20;;;;;;5071767;28;20360;-72
2024/02/19 04:13:24;;;;;;;3.25;2.13;;;4.20;67.30;;;;;;5072231;28;20370;-74
2024/02/19 04:15:50;;;;;;;3.38;2.30;;;4.30;67.50;;;;;;5072203;28;20029;-73
2024/02/19 04:18:16;;;;;;;7.88;5.07;;;4.30;67.50;;;;;;5073819;28;20086;-74
2024/02/19 04:20:42;;;;;;;3.55;1.73;;;4.20;67.60;;;;;;5072889;28;20039;-71
2024/02/19 04:23:08;;;;;;;4.55;2.42;;;4.30;67.60;;;;;;5072415;28;20221;-74
2024/02/19 04:25:35;;;;;;;2.63;1.33;;;4.30;67.30;;;;;;5073363;28;20043;-71
2024/02/19 04:28:01;;;;;;;5.18;2.00;;;4.30;67.30;;;;;;5073633;28;20113;-71
2024/02/19 04:30:27;;;;;;;3.50;2.25;;;4.20;67.20;;;;;;5071500;28;20029;-74
2024/02/19 04:32:53;;;;;;;4.20;2.15;;;4.20;67.00;;;;;;5071916;28;20036;-70
2024/02/19 04:35:19;;;;;;;2.05;1.63;;;4.20;67.20;;;;;;5055389;28;20060;-74
2024/02/19 04:37:45;;;;;;;;;;;4.10;67.50;;;;;;5072458;28;20044;-74
2024/02/19 04:40:12;;;;;;;1.50;1.10;;;4.20;67.60;;;;;;5072524;28;20060;-74
2024/02/19 04:42:39;;;;;;;2.15;0.93;;;4.10;67.60;;;;;;5073150;28;20075;-71
2024/02/19 04:45:06;;;;;;;2.33;1.67;;;4.10;67.30;;;;;;5072909;28;20031;-74
2024/02/19 04:47:32;;;;;;;2.85;1.75;;;4.10;66.90;;;;;;5073094;28;20055;-70
2024/02/19 04:49:58;;;;;;;2.30;1.15;;;4.10;67.30;;;;;;5071687;28;20032;-71
2024/02/19 04:52:24;;;;;;;2.20;0.90;;;4.10;67.40;;;;;;5072088;28;20044;-74
2024/02/19 04:54:50;;;;;;;3.53;1.23;;;4.10;67.50;;;;;;5072750;28;20451;-71
2024/02/19 04:57:16;;;;;;;;;;;4.20;67.40;;;;;;5072091;28;20401;-71
2024/02/19 04:59:42;;;;;;;2.92;1.55;;;4.10;67.60;;;;;;5071271;28;19913;-71
2024/02/19 05:02:08;;;;;;;3.88;1.60;;;4.10;67.20;;;;;;5070878;28;20310;-71
2024/02/19 05:04:34;;;;;;;1.55;0.98;;;4.10;67.00;;;;;;5073097;28;20098;-71
2024/02/19 05:07:00;;;;;;;2.58;1.20;;;4.10;66.80;;;;;;5071995;28;20780;-74
2024/02/19 05:09:26;;;;;;;3.40;1.95;;;4.10;66.90;;;;;;5071435;28;20058;-71
2024/02/19 05:11:52;;;;;;;1.15;0.75;;;4.00;66.70;;;;;;5072024;28;20583;-71
2024/02/19 05:14:18;;;;;;;2.80;1.40;;;4.00;66.90;;;;;;5071283;28;20025;-74
2024/02/19 05:16:45;;;;;;;1.15;0.95;;;4.00;66.60;;;;;;5071246;28;20045;-74
2024/02/19 05:19:12;;;;;;;2.25;0.98;;;4.00;66.50;;;;;;5072079;28;20165;-74
2024/02/19 05:21:57;;;;;;;8.70;2.63;;;4.00;66.40;;;;;;5071962;28;20090;-71
2024/02/19 05:24:23;;;;;;;2.90;0.75;;;4.00;66.50;;;;;;5070915;28;20086;-72
2024/02/19 05:26:49;;;;;;;1.15;0.77;;;4.00;66.50;;;;;;5072364;28;20041;-74
2024/02/19 05:29:15;;;;;;;12.40;1.85;;;4.00;66.40;;;;;;5053860;28;20036;-74
2024/02/19 05:31:41;;;;;;;1.92;1.23;;;4.10;66.40;;;;;;5053467;28;20036;-74
2024/02/19 05:34:08;;;;;;;5.43;2.20;;;4.10;66.50;;;;;;5070535;28;20489;-74
2024/02/19 05:36:34;;;;;;;3.10;1.35;;;4.10;66.20;;;;;;5054052;28;20029;-71
2024/02/19 05:39:01;;;;;;;3.53;2.25;;;4.10;66.00;;;;;;5070753;28;20139;-70
2024/02/19 05:41:27;;;;;;;;;;;4.10;66.50;;;;;;5070414;28;20029;-71
2024/02/19 05:43:53;;;;;;;2.78;1.23;;;4.00;65.90;;;;;;5070632;28;19959;-71
2024/02/19 05:46:20;;;;;;;;;;;4.00;66.40;;;;;;5070841;28;20481;-73
2024/02/19 05:48:46;;;;;;;4.35;2.53;;;4.00;66.60;;;;;;5053710;28;19920;-74
2024/02/19 05:51:12;;;;;;;;;;;4.00;66.50;;;;;;5070560;28;20037;-70
2024/02/19 05:53:40;;;;;;;3.13;1.10;;;4.00;66.50;;;;;;5053856;28;19934;-71
2024/02/19 05:56:10;;;;;;;3.65;2.85;;;3.90;66.00;;;;;;5070455;28;20542;-74
2024/02/19 06:01:26;;;;;;;2.03;1.40;;;3.80;66.30;;;;;;5071021;28;20055;-71
2024/02/19 06:03:52;;;;;;;2.13;1.08;;;3.80;67.00;;;;;;5069822;28;20052;-74
2024/02/19 06:06:17;;;;;;;3.80;1.65;;;3.90;66.80;;;;;;5070259;28;20044;-73
2024/02/19 06:08:44;;;;;;;2.65;1.58;;;3.90;66.70;;;;;;5071353;28;20047;-73
2024/02/19 06:11:10;;;;;;;2.00;1.05;;;3.90;66.40;;;;;;5069639;28;20055;-71
2024/02/19 06:13:36;;;;;;;11.73;2.00;;;3.90;66.30;;;;;;5070134;28;20037;-74
2024/02/19 06:16:02;;;;;;;4.03;2.10;;;3.90;66.30;;;;;;5071439;28;20055;-74
2024/02/19 06:18:28;;;;;;;2.95;2.30;;;4.00;66.20;;;;;;5070207;28;20032;-72
2024/02/19 06:20:54;;;;;;;5.32;2.58;;;4.10;66.10;;;;;;5069532;28;20040;-71
2024/02/19 06:23:20;;;;;;;8.20;2.80;;;4.10;66.30;;;;;;5070208;28;20040;-74
2024/02/19 06:25:46;;;;;;;6.13;2.33;;;4.10;66.60;;;;;;5071520;28;20397;-73
2024/02/19 06:28:13;;;;;;;5.07;2.72;;;4.10;66.70;;;;;;5071142;28;20041;-74
2024/02/19 06:30:39;;;;;;;7.95;2.75;;;4.20;66.40;;;;;;5071057;28;20443;-71
2024/02/19 06:33:06;;;;;;;6.22;3.50;;;4.20;66.50;;;;;;5069861;28;20033;-71
2024/02/19 06:35:32;;;;;;;;;;;4.30;66.20;;;;;;5070609;28;20028;-71
2024/02/19 06:37:58;;;;;;;8.68;2.20;;;4.40;66.30;;;;;;5069710;28;19920;-73
2024/02/19 06:40:24;;;;;;;6.05;2.90;;;4.40;65.90;;;;;;5069204;28;20048;-74
2024/02/19 06:42:51;;;;;;;8.02;2.88;;;4.50;66.00;;;;;;5071318;28;20040;-71
2024/02/19 06:45:17;;;;;;;6.07;3.25;;;4.60;66.10;;;;;;5071130;28;20107;-71
2024/02/19 06:47:43;;;;;;;1.88;1.33;;;4.60;66.10;;;;;;5070848;28;20420;-74
2024/02/19 06:50:09;;;;;;;3.22;2.50;;;4.60;66.20;;;;;;5070576;28;20390;-71
2024/02/19 06:52:35;;;;;;;2.45;1.33;;;4.70;66.00;;;;;;5053072;28;20457;-74
2024/02/19 06:55:01;;;;;;;3.90;1.55;;;4.70;66.00;;;;;;5053019;28;20064;-74
2024/02/19 06:57:28;;;;;;;2.42;1.52;;;4.80;65.70;;;;;;5071116;28;20071;-73
2024/02/19 06:59:54;;;;;;;4.20;2.92;;;4.90;65.60;;;;;;5069596;28;20547;-71
2024/02/19 07:02:20;;;;;;;4.82;2.85;;;5.00;65.40;;;;;;5052162;28;20044;-71
2024/02/19 07:04:47;;;;;;;8.05;5.05;;;5.10;65.50;;;;;;5069669;28;20052;-74
2024/02/19 07:07:13;;;;;;;8.77;4.90;;;5.20;65.40;;;;;;5069547;28;20044;-72
2024/02/19 07:09:40;;;;;;;10.50;4.20;;;5.30;65.60;;;;;;5052752;28;20112;-73
2024/02/19 07:12:07;;;;;;;9.45;3.95;;;5.30;65.50;;;;;;5070235;28;20047;-71
2024/02/19 07:14:33;;;;;;;7.45;4.75;;;5.40;64.90;;;;;;5069585;28;20082;-71
2024/02/19 07:17:00;;;;;;;7.07;3.88;;;5.40;65.50;;;;;;5069614;28;20048;-74
2024/02/19 07:19:26;;;;;;;5.80;5.03;;;5.50;65.40;;;;;;5069447;28;20443;-74
2024/02/19 07:21:52;;;;;;;11.65;4.45;;;5.60;65.30;;;;;;5070184;28;20037;-74
2024/02/19 07:24:18;;;;;;;6.22;4.38;;;5.70;65.30;;;;;;5070605;28;20028;-71
2024/02/19 07:26:44;;;;;;;11.73;5.32;;;5.90;65.10;;;;;;5070610;28;20048;-74
2024/02/19 07:29:10;;;;;;;5.60;3.70;;;5.90;65.10;;;;;;5071715;28;20086;-74
2024/02/19 07:31:36;;;;;;;8.32;5.28;;;6.00;65.20;;;;;;5073006;28;20258;-74
2024/02/19 07:34:02;;;;;;;7.93;4.70;;;6.10;65.10;;;;;;5073019;28;20032;-70
2024/02/19 07:36:28;;;;;;;9.00;5.15;;;6.10;65.50;;;;;;5074618;28;20032;-70
2024/02/19 07:38:54;;;;;;;;;;;6.20;65.30;;;;;;5074469;28;20074;-74
2024/02/19 07:41:21;;;;;;;17.13;5.30;;;6.30;65.60;;;;;;5072289;28;20316;-70
2024/02/19 07:43:47;;;;;;;7.95;5.40;;;6.40;65.30;;;;;;5072643;28;20389;-74
2024/02/19 07:46:13;;;;;;;15.75;4.43;;;6.40;65.40;;;;;;5072838;28;20408;-71
2024/02/19 07:48:39;;;;;;;12.75;4.38;;;6.50;66.00;;;;;;5056235;28;20068;-71
2024/02/19 07:51:05;;;;;;;11.68;7.32;;;6.50;66.00;;;;;;5055513;28;20524;-71
2024/02/19 07:53:31;;;;;;;11.98;6.30;;;6.60;66.20;;;;;;5074296;28;20415;-71
2024/02/19 07:56:15;;;;;;;8.40;5.13;;;6.60;66.50;;;;;;5072616;28;20028;-71
2024/02/19 07:58:41;;;;;;;8.43;5.18;;;6.70;66.30;;;;;;5073412;28;20489;-70
2024/02/19 08:01:08;;;;;;;19.95;5.93;;;6.70;66.20;;;;;;5073496;28;20040;-74
2024/02/19 08:03:34;;;;;;;25.75;6.90;;;6.70;66.20;;;;;;5072219;28;20052;-72
2024/02/19 08:06:00;;;;;;;13.32;5.22;;;6.80;65.50;;;;;;5072661;28;20382;-71
2024/02/19 08:08:28;;;;;;;9.93;4.85;;;6.80;66.20;;;;;;5055747;28;20680;-71
2024/02/19 08:10:54;;;;;;;4.45;2.35;;;6.90;66.00;;;;;;5071632;28;20111;-71
2024/02/19 08:13:20;;;;;;;5.95;3.17;;;7.10;65.80;;;;;;5072417;28;20048;-71
2024/02/19 08:15:46;;;;;;;5.80;4.00;;;7.20;65.40;;;;;;5072379;28;20041;-74
2024/02/19 08:18:13;;;;;;;11.30;3.45;;;7.20;65.30;;;;;;5073405;28;20043;-74
2024/02/19 08:20:40;;;;;;;5.43;3.00;;;7.30;65.10;;;;;;5072990;28;20077;-71
2024/02/19 08:23:07;;;;;;;6.20;4.50;;;7.40;65.00;;;;;;5072256;28;20036;-74
2024/02/19 08:25:34;;;;;;;5.55;3.95;;;7.50;64.90;;;;;;5072279;28;20028;-74
2024/02/19 08:28:00;;;;;;;1.80;1.30;;;7.50;65.20;;;;;;5071992;28;20127;-71
2024/02/19 08:30:26;;;;;;;5.55;2.15;;;7.50;65.00;;;;;;5071567;28;20052;-71
2024/02/19 08:32:52;;;;;;;9.20;5.45;;;7.70;64.80;;;;;;5071950;28;20037;-71
2024/02/19 08:35:18;;;;;;;7.80;4.15;;;7.80;64.70;;;;;;5072055;28;20220;-74
2024/02/19 08:37:44;;;;;;;3.72;2.90;;;7.90;64.40;;;;;;5071754;28;20051;-71
2024/02/19 08:40:11;;;;;;;3.72;2.28;;;7.90;64.30;;;;;;5070189;28;20036;-71
2024/02/19 08:42:37;;;;;;;3.47;2.10;;;8.00;64.00;;;;;;5071958;28;20098;-71
2024/02/19 08:45:04;;;;;;;;;;;8.10;63.70;;;;;;5072182;28;20075;-70
2024/02/19 08:47:30;;;;;;;17.55;5.22;;;8.10;63.60;;;;;;5055050;28;19963;-74
2024/02/19 08:49:57;;;;;;;5.63;3.38;;;8.20;63.10;;;;;;5071590;28;20458;-74
2024/02/19 08:52:23;;;;;;;6.97;3.30;;;8.40;63.20;;;;;;5071250;28;20074;-74
2024/02/19 08:54:49;;;;;;;7.72;3.83;;;8.50;62.80;;;;;;5071502;28;20021;-71
2024/02/19 08:57:16;;;;;;;4.88;2.88;;;8.60;62.30;;;;;;5072790;28;20048;-74
2024/02/19 08:59:45;;;;;;;8.15;4.47;;;8.70;62.20;;;;;;5072364;28;20029;-74
2024/02/19 09:02:12;;;;;;;3.03;2.40;;;8.80;61.80;;;;;;5070947;28;20045;-74
2024/02/19 09:05:00;;;;;;;3.65;1.42;;;8.80;61.60;;;;;;5070989;28;20073;-71
2024/02/19 09:07:26;;;;;;;6.97;3.60;;;8.90;61.30;;;;;;5071355;28;20497;-74
2024/02/19 09:09:52;;;;;;;4.72;3.33;;;8.90;61.00;;;;;;5070982;28;20040;-71
2024/02/19 09:12:20;;;;;;;5.32;4.47;;;8.90;60.90;;;;;;5071813;28;20052;-71
2024/02/19 09:14:46;;;;;;;5.00;3.60;;;9.00;60.70;;;;;;5072403;28;20424;-74
2024/02/19 09:17:14;;;;;;;4.85;3.25;;;9.10;61.00;;;;;;5054455;28;20071;-73
2024/02/19 09:19:41;;;;;;;10.05;3.50;;;9.10;60.90;;;;;;5072241;28;20041;-74
2024/02/19 09:22:07;;;;;;;4.50;2.50;;;9.10;60.50;;;;;;5071731;28;20477;-74
2024/02/19 09:24:33;;;;;;;;;;;9.20;60.50;;;;;;5072744;28;20104;-74
2024/02/19 09:27:00;;;;;;;4.47;2.78;;;9.30;60.70;;;;;;5053933;28;20126;-71
2024/02/19 09:29:26;;;;;;;5.05;3.05;;;9.30;60.70;;;;;;5053992;28;20481;-74
2024/02/19 09:31:52;;;;;;;4.85;2.60;;;9.30;60.50;;;;;;5070344;28;20037;-74
2024/02/19 09:34:18;;;;;;;3.20;1.95;;;9.30;62.20;;;;;;5071882;28;20024;-71
2024/02/19 09:36:45;;;;;;;7.88;3.42;;;9.20;61.60;;;;;;5071777;28;20045;-71
2024/02/19 09:39:12;;;;;;;5.88;2.75;;;9.20;61.70;;;;;;5053908;28;20510;-74
2024/02/19 09:41:39;;;;;;;;;;;9.30;61.30;;;;;;5072115;28;20539;-71
2024/02/19 09:44:05;;;;;;;4.93;1.85;;;9.20;60.80;;;;;;5054082;28;19912;-74
2024/02/19 09:46:31;;;;;;;3.70;2.58;;;9.30;61.50;;;;;;5053878;28;20028;-74
2024/02/19 09:49:00;;;;;;;3.33;2.28;;;9.40;61.20;;;;;;5053806;28;20135;-74
2024/02/19 09:51:29;;;;;;;2.95;1.67;;;9.50;61.00;;;;;;5069604;28;20033;-74
2024/02/19 09:53:56;;;;;;;2.80;2.03;;;9.60;60.80;;;;;;5070335;28;20029;-74
2024/02/19 09:56:23;;;;;;;5.05;3.13;;;9.60;60.80;;;;;;5070537;28;20070;-74
2024/02/19 09:58:50;;;;;;;5.63;2.92;;;9.70;60.30;;;;;;5070008;28;20067;-74
2024/02/19 10:01:17;;;;;;;3.65;3.30;;;9.60;61.00;;;;;;5071202;28;20151;-71
2024/02/19 10:03:44;;;;;;;10.07;4.70;;;9.50;60.60;;;;;;5069997;28;20045;-74
2024/02/19 10:06:10;;;;;;;2.05;1.38;;;9.50;60.90;;;;;;5070130;28;20029;-74
2024/02/19 10:08:36;;;;;;;4.43;2.95;;;9.60;61.20;;;;;;5070213;28;20115;-71
2024/02/19 10:11:08;;;;;;;4.45;4.00;;;9.60;61.00;;;;;;5069537;28;20382;-74
2024/02/19 10:16:22;;;;;;;6.15;3.28;;;9.60;61.30;;;;;;5070207;28;20037;-73
2024/02/19 10:18:48;;;;;;;6.60;2.40;;;9.50;61.40;;;;;;5071357;28;20381;-74
2024/02/19 10:21:14;;;;;;;4.97;2.28;;;9.60;61.40;;;;;;5070944;28;20029;-71
2024/02/19 10:23:40;;;;;;;6.00;3.20;;;9.60;61.40;;;;;;5053702;28;20052;-71
2024/02/19 10:26:07;;;;;;;3.22;2.30;;;9.50;61.40;;;;;;5071367;28;20120;-74
2024/02/19 10:28:34;;;;;;;3.53;2.35;;;9.50;61.40;;;;;;5069905;28;20040;-73
2024/02/19 10:31:01;;;;;;;3.05;1.80;;;9.60;61.20;;;;;;5069604;28;20067;-71
2024/02/19 10:33:27;;;;;;;5.18;1.95;;;9.60;60.90;;;;;;5070075;28;20028;-70
2024/02/19 10:35:53;;;;;;;2.65;1.20;;;9.70;60.70;;;;;;5071236;28;20025;-73
2024/02/19 10:38:19;;;;;;;2.63;1.45;;;9.70;60.80;;;;;;5069943;28;20524;-74
2024/02/19 10:40:46;;;;;;;6.93;3.22;;;9.70;60.60;;;;;;5052532;28;20045;-74
2024/02/19 10:43:12;;;;;;;;;;;9.70;60.40;;;;;;5053652;28;20028;-71
2024/02/19 10:45:38;;;;;;;2.63;2.28;;;9.70;60.60;;;;;;5071176;28;20419;-71
2024/02/19 10:48:05;;;;;;;2.95;1.92;;;9.70;60.30;;;;;;5069822;28;20446;-74
2024/02/19 10:50:32;;;;;;;5.38;3.42;;;9.80;60.60;;;;;;5069296;28;20049;-71
2024/02/19 10:52:59;;;;;;;7.55;2.97;;;9.80;60.10;;;;;;5071077;28;20363;-74
2024/02/19 10:55:28;;;;;;;2.50;2.25;;;9.90;60.10;;;;;;5070130;28;20489;-74
2024/02/19 10:57:55;;;;;;;2.03;1.52;;;9.90;59.30;;;;;;5052940;28;20092;-74
2024/02/19 11:00:40;;;;;;;5.18;3.00;;;10.00;59.00;;;;;;5070264;28;20238;-74
2024/02/19 11:03:08;;;;;;;3.05;1.83;;;10.20;59.00;;;;;;5069305;28;20048;-71
2024/02/19 11:05:45;;;;;;;3.78;2.53;;;10.30;58.60;;;;;;5056924;28;20086;-71
2024/02/19 11:08:34;;;;;;;;;;;10.40;57.70;;;;;;5075113;28;20052;-74
2024/02/19 11:11:03;;;;;;;6.25;4.60;;;10.50;58.20;;;;;;5074126;28;19920;-74
2024/02/19 11:13:29;;;;;;;1.58;1.15;;;10.60;57.70;;;;;;5073577;28;20140;-74
2024/02/19 11:15:55;;;;;;;;;;;10.80;57.50;;;;;;5074087;28;20033;-73
2024/02/19 11:18:22;;;;;;;5.22;3.03;;;10.90;57.50;;;;;;5075085;28;19994;-74
2024/02/19 11:20:49;;;;;;;3.65;2.20;;;11.00;57.00;;;;;;5072727;28;20036;-71
2024/02/19 11:23:20;;;;;;;3.33;2.40;;;10.90;56.20;;;;;;5073430;28;20041;-71
2024/02/19 11:25:46;;;;;;;6.10;2.90;;;11.00;56.80;;;;;;5074653;28;20033;-74
2024/02/19 11:28:12;;;;;;;;;;;11.00;56.20;;;;;;5075223;28;20445;-71
2024/02/19 11:30:38;;;;;;;4.55;1.80;;;11.00;56.50;;;;;;5073817;28;19951;-73
2024/02/19 11:33:05;;;;;;;;;;;11.00;56.30;;;;;;5074927;28;20120;-71
2024/02/19 11:35:34;;;;;;;4.10;2.67;;;11.10;56.30;;;;;;5073155;28;19916;-73
2024/02/19 11:38:00;;;;;;;3.42;2.63;;;11.20;55.50;;;;;;5056341;28;21005;-74
2024/02/19 11:40:33;;;;;;;4.65;1.98;;;11.20;55.30;;;;;;5072324;28;20122;-71
2024/02/19 11:43:19;;;;;;;2.67;1.40;;;11.20;55.30;;;;;;5056823;28;20460;-74
2024/02/19 11:45:45;;;;;;;2.80;1.77;;;11.10;55.70;;;;;;5072755;28;20036;-74
2024/02/19 11:48:11;;;;;;;5.28;2.80;;;11.10;55.80;;;;;;5072940;28;20086;-74
2024/02/19 11:50:38;;;;;;;4.45;2.72;;;11.10;55.30;;;;;;5072371;28;20040;-71
2024/02/19 11:53:04;;;;;;;;;;;11.00;55.90;;;;;;5073099;28;20520;-71
2024/02/19 11:55:32;;;;;;;2.83;1.83;;;11.00;56.90;;;;;;5056093;28;20284;-73
2024/02/19 11:58:00;;;;;;;7.97;1.95;;;11.00;55.80;;;;;;5072425;28;20056;-74
2024/02/19 12:00:32;;;;;;;6.07;2.05;;;11.00;55.60;;;;;;5072178;28;20101;-74
2024/02/19 12:02:59;;;;;;;7.78;4.22;;;11.00;56.20;;;;;;5072331;28;20040;-71
2024/02/19 12:05:26;;;;;;;5.53;2.15;;;11.00;56.30;;;;;;5072691;28;20485;-74
2024/02/19 12:07:53;;;;;;;2.72;1.85;;;11.10;56.00;;;;;;5073482;28;20048;-71
2024/02/19 12:10:19;;;;;;;7.00;3.90;;;11.30;55.90;;;;;;5055022;28;20021;-73
2024/02/19 12:12:45;;;;;;;7.13;3.83;;;11.50;55.20;;;;;;5055940;28;20089;-71
2024/02/19 12:15:30;;;;;;;5.68;2.47;;;11.80;54.90;;;;;;5073655;28;20127;-73
2024/02/19 12:17:56;;;;;;;4.22;2.00;;;12.10;54.10;;;;;;5073782;28;20040;-71
2024/02/19 12:20:22;;;;;;;5.13;2.65;;;12.20;53.10;;;;;;5073055;28;21825;-71
2024/02/19 12:22:48;;;;;;;5.65;2.60;;;12.40;53.00;;;;;;5073511;28;20045;-71
2024/02/19 12:25:14;;;;;;;3.63;2.55;;;12.40;52.60;;;;;;5073524;28;20033;-74
2024/02/19 12:27:41;;;;;;;3.90;2.47;;;12.40;52.70;;;;;;5073391;28;20076;-71
2024/02/19 12:30:09;;;;;;;4.60;2.63;;;12.50;52.80;;;;;;5071418;28;20477;-71
2024/02/19 12:32:35;;;;;;;3.20;2.40;;;12.60;50.70;;;;;;5072007;28;20036;-74
2024/02/19 12:35:01;;;;;;;6.45;3.05;;;12.90;51.30;;;;;;5071894;28;20032;-71
2024/02/19 12:37:29;;;;;;;2.40;1.58;;;13.20;50.10;;;;;;5071861;28;20056;-71
2024/02/19 12:39:55;;;;;;;4.47;2.15;;;13.70;49.00;;;;;;5071729;28;20494;-74
2024/02/19 12:42:22;;;;;;;3.90;1.60;;;14.50;47.10;;;;;;5071223;28;20044;-74
2024/02/19 12:44:48;;;;;;;3.08;2.15;;;15.20;44.50;;;;;;5072795;28;20040;-71
2024/02/19 12:47:14;;;;;;;2.65;2.35;;;15.50;43.40;;;;;;5071555;28;20036;-74
2024/02/19 12:49:40;;;;;;;;;;;15.60;42.50;;;;;;5072550;28;20397;-73
2024/02/19 12:52:08;;;;;;;2.92;2.10;;;15.60;43.30;;;;;;5072429;28;19963;-70
2024/02/19 12:54:34;;;;;;;2.70;1.70;;;16.30;41.80;;;;;;5073013;28;20186;-74
2024/02/19 12:57:00;;;;;;;;;;;17.30;38.80;;;;;;5073408;28;20052;-74
2024/02/19 12:59:26;;;;;;;3.45;2.50;;;17.90;38.40;;;;;;5072817;28;20008;-71
2024/02/19 13:01:52;;;;;;;5.35;3.00;;;18.90;36.50;;;;;;5070611;28;20051;-71
2024/02/19 13:04:19;;;;;;;1.77;1.38;;;21.00;33.50;;;;;;5072611;28;20052;-74
2024/02/19 13:06:45;;;;;;;3.55;2.03;;;22.20;29.20;;;;;;5071747;28;20555;-75